TMD weather

Timbedra Airport
Timbedra, Hodh ech Chargui Region, Mauritania

Public forecast

Using degrees Celsius for public forecast. Weather courtesy of forecast.io.

METAR (pilot weather report)

Report is more than 6 hours old.

Closest report is NĂ©ma Airport, 54.3 nm (100.5 km) ENE. Retrieved 2019/06/13 12:00 UTC (1 month ago):

GQNI 131200Z 22010KT 7000 NSC 39/14 Q1012

TAF (pilot weather forecast)

Forecast is more than 12 hours old.

Closest forecast is Nouakchott International Airport, 460.2 nm (852.2 km) WNW. Retrieved 2016/06/26 18:52 UTC (3 years ago):

TAF GQNN 261700Z 2618/2800 28010KT 6000 NSC BECMG 2619/2621 BKN008 PROB40 TEMPO 2704/2708 4000 BR BECMG 2709/2711 FEW010